HLTD

Details ICAO HLTD (LTD)
Name GHADAMES EAST
Region Libya
Timezone Africa/Tripoli (UTC+2.0)
Plans Departing 3
Arriving 11
Stats Elevation 1,122 ft / 342 m (AMSL)
Location 30.145430° 9.708889°
Runways 2
Magnetic Variation 1.953° E
Sunrise 2018-05-24 04:24:22 UTC / 2018-05-24 06:24:22 Local
Sunset 2018-05-24 18:14:30 UTC / 2018-05-24 20:14:30 Local
Advertisement - Login to hide

Runways

ID Width Length Bearing (true) Bearing (mag) Surface Threshold Offset Overrun Length
01 131 ft / 40 m 6,537 ft / 1,993 m 8.40° 6.45° Asphalt 0 ft / 0 m 0 ft / 0 m
06 148 ft / 45 m 11,813 ft / 3,601 m 62.27° 60.32° Asphalt 0 ft / 0 m 984 ft / 300 m
19 131 ft / 40 m 6,537 ft / 1,993 m 188.41° 186.46° Asphalt 1,046 ft / 319 m 0 ft / 0 m
24 148 ft / 45 m 11,813 ft / 3,601 m 242.29° 240.34° Asphalt 0 ft / 0 m 984 ft / 300 m

Map

Weather


0- 5 10 15 20 25 30 35+ Temperature / ° C

Clouds and Precipitation
Forecast for 2018-05-23 18:00 UTC. Updated 6 hours ago

Ground ~20,000 ft ~40,000 ft Winds

METAR

Not found

TAF

TAF HLTD 231700Z 2318/2418 VRB02KT 8000 NSC BECMG 2402/2404 06012KT BECMG 2409/2411 12012KT

Frequencies

Tower 118.10 MHz TWR
Warning: Do not use this data for real-world aviation or navigation. No guarantee of current accuracy is given.